Broad Brook, Connecticut
Current Conditions -  °F | °C
As of 10:51 PM on Wednesday 22 Oct 2014 (Local Time) from KBDL Reporting Station
Light Rain Light Rain  
Wind Chill: 50°   Ceiling: 1400
Heat Index: 50°   Visibility: 9mi
Dew Point: 46°   Wind: 20mph
Humidity: 86%   Direction: 20°NNE
Pressure: 29.81"   Gusts: 30mph
Location:  41.91°N, 72.54°W
Report Text: KBDL 230251Z 02017G26KT 9SM -RA BKN014 OVC021 10/08 A2981 RMK AO2 PK WND 36037/0152 SLP095 P0010 60029 T01000078 55009
Loading
Personal Weather Stations






























Interactive Weather Map
Tropical Storm Tracking
New forecast layout! Learn more

10-Day Weather Forecast

Advertisements
Track Severe Weather on mobile